Eihoumaru No.65 — JD3328 — position and weather

sailwx.info

Track history (hours):
 
Tides and Currents Weather Stations Pressure Air Temp Water Temp Dewpoint Dewpoint Depression Visibility Wind Speed Wind Dir Waves Ship Positions

Eihoumaru No.65

Last reported at 2017-Nov-24 08:32 UTC. Time now 2017-Nov-24 09:25 UTC.
Position N 34°37' E 134°57'.

Length 62 m; draft 3.4 m.

Type: Tanker. MMSI: 431003364.

Date/timePositionNaut miles runAvg speedWind from/ knotsBaromVisibWave heightAir tempDewpointWater temp
2017-Nov-24 08:32N 34°37' E 134°57'210.0
2017-Nov-24 08:18N 34°37' E 134°59'3 8.8
2017-Nov-24 08:00N 34°37' E 135°02'5 9.9
2017-Nov-24 07:30N 34°36' E 135°08'611.5
2017-Nov-24 07:00N 34°38' E 135°15'4 8.6
2017-Nov-24 06:30N 34°42' E 135°16'0 0.1
2017-Nov-24 06:00N 34°42' E 135°16'0 0.0
2017-Nov-24 05:30N 34°42' E 135°16'0 0.0
2017-Nov-24 05:00N 34°42' E 135°16'0 0.0
2017-Nov-24 04:30N 34°42' E 135°16'0 0.3
2017-Nov-24 04:00N 34°42' E 135°16'3 6.3
2017-Nov-24 03:30N 34°39' E 135°16'1 2.3
2017-Nov-24 03:00N 34°38' E 135°18'2 4.0
2017-Nov-24 02:30N 34°39' E 135°20'4 7.2
2017-Nov-24 02:00N 34°40' E 135°24'1 2.2
2017-Nov-24 01:30N 34°40' E 135°25'0 0.0
2017-Nov-24 01:00N 34°40' E 135°25'0 0.0
2017-Nov-24 00:30N 34°40' E 135°25'0 0.0
2017-Nov-24 00:00N 34°40' E 135°25'0 0.0
2017-Nov-23 23:30N 34°40' E 135°25'3 5.6
2017-Nov-23 23:00N 34°38' E 135°22'1 2.0
2017-Nov-23 22:30N 34°39' E 135°22'0 0.0
2017-Nov-23 22:00N 34°39' E 135°22'0 0.0
2017-Nov-23 21:30N 34°39' E 135°22'0 0.0
2017-Nov-23 21:00N 34°39' E 135°22'0 0.0
2017-Nov-23 20:30N 34°39' E 135°22'0 0.0
2017-Nov-23 20:00N 34°39' E 135°22'0 0.0
2017-Nov-23 19:30N 34°39' E 135°22'0 0.9
2017-Nov-23 18:59N 34°39' E 135°22'612.3
2017-Nov-23 18:30N 34°35' E 135°16'611.6
2017-Nov-23 17:58N 34°30' E 135°12'1311.5
2017-Nov-23 16:50N 34°20' E 135°02'510.8
2017-Nov-23 16:22N 34°15' E 134°59'411.7
2017-Nov-23 15:59N 34°11' E 135°00'611.9
2017-Nov-23 15:30N 34°05' E 135°01'  
2017-Nov-19 07:42N 34°48' E 139°07'210.4
2017-Nov-19 07:30N 34°49' E 139°09'2610.5
2017-Nov-19 05:03N 35°04' E 139°34'112.3
2017-Nov-19 05:00N 35°04' E 139°35'611.6
2017-Nov-19 04:30N 35°07' E 139°41'611.8
2017-Nov-19 03:59N 35°12' E 139°46'511.2
2017-Nov-19 03:30N 35°17' E 139°45'510.2
2017-Nov-19 03:00N 35°21' E 139°41'0 0.2
2017-Nov-19 02:30N 35°21' E 139°41'0 0.1
2017-Nov-19 02:00N 35°21' E 139°41'0 0.0
2017-Nov-19 01:30N 35°21' E 139°41'0 0.0
2017-Nov-19 01:00N 35°21' E 139°41'0 0.0
2017-Nov-19 00:30N 35°21' E 139°41'0 0.0
2017-Nov-19 00:01N 35°21' E 139°41'0 0.1
2017-Nov-18 23:30N 35°21' E 139°41'0 0.0
2017-Nov-18 23:00N 35°21' E 139°41'0 0.1
2017-Nov-18 22:30N 35°21' E 139°41'0 0.1
2017-Nov-18 22:00N 35°21' E 139°41'0 0.0
2017-Nov-18 21:29N 35°21' E 139°41'0 0.0
2017-Nov-18 21:00N 35°21' E 139°41'0 0.0
2017-Nov-18 20:30N 35°21' E 139°41'0 0.0
2017-Nov-18 20:00N 35°21' E 139°41'0 0.0
2017-Nov-18 19:30N 35°21' E 139°41'0 0.0
2017-Nov-18 19:00N 35°21' E 139°41'0 0.0
2017-Nov-18 18:31N 35°21' E 139°41'0 0.0
2017-Nov-18 17:59N 35°21' E 139°41'0 0.0
2017-Nov-18 17:30N 35°21' E 139°41'0 0.0
2017-Nov-18 17:00N 35°21' E 139°41'0 0.0
2017-Nov-18 16:30N 35°21' E 139°41'0 0.0
2017-Nov-18 16:01N 35°21' E 139°41'0 0.0
2017-Nov-18 15:30N 35°21' E 139°41'0 0.0
2017-Nov-18 15:00N 35°21' E 139°41'0 0.0
2017-Nov-18 14:30N 35°21' E 139°41'0 0.0
2017-Nov-18 14:00N 35°21' E 139°41'0 0.0
2017-Nov-18 13:30N 35°21' E 139°41'0 0.0
2017-Nov-18 13:00N 35°21' E 139°41'0 0.0
2017-Nov-18 12:30N 35°21' E 139°41'0 0.0
2017-Nov-18 12:00N 35°21' E 139°41'0 0.0
2017-Nov-18 11:30N 35°21' E 139°41'0 0.0
2017-Nov-18 11:00N 35°21' E 139°41'0 0.0
2017-Nov-18 10:30N 35°21' E 139°41'0 0.0
2017-Nov-18 10:00N 35°21' E 139°41'0 0.0
2017-Nov-18 09:30N 35°21' E 139°41'0 0.0
2017-Nov-18 09:00N 35°21' E 139°41'0 0.1
2017-Nov-18 08:30N 35°21' E 139°41'0 0.1
2017-Nov-18 08:00N 35°21' E 139°41'0 0.1
2017-Nov-18 07:30N 35°21' E 139°41'0 0.0
2017-Nov-18 07:00N 35°21' E 139°41'0 0.0
2017-Nov-18 06:30N 35°21' E 139°41'0 0.0
2017-Nov-18 06:00N 35°21' E 139°41'0 0.1
2017-Nov-18 05:30N 35°21' E 139°41'0 0.1
2017-Nov-18 05:00N 35°21' E 139°41'0 0.0
2017-Nov-18 04:30N 35°21' E 139°41'0 0.2
2017-Nov-18 04:00N 35°21' E 139°41'4 8.8
2017-Nov-18 03:30N 35°25' E 139°44'510.8
2017-Nov-18 03:00N 35°29' E 139°48'3 0.6
2017-Nov-17 22:39N 35°31' E 139°46'0 0.0
2017-Nov-17 22:26N 35°31' E 139°46'0 0.0
2017-Nov-17 21:56N 35°31' E 139°46'2 5.4
2017-Nov-17 21:30N 35°30' E 139°48'2 3.5
2017-Nov-17 21:00N 35°31' E 139°50'0 0.0
2017-Nov-17 20:30N 35°31' E 139°50'0 0.0
2017-Nov-17 20:00N 35°31' E 139°50'0 0.1
2017-Nov-17 19:30N 35°31' E 139°50'0 0.0
2017-Nov-17 16:08N 35°31' E 139°50'0 0.0
2017-Nov-17 14:38N 35°31' E 139°50'0 0.0
2017-Nov-17 14:30N 35°31' E 139°50'0 0.0
2017-Nov-17 13:54N 35°31' E 139°50'0 0.0
2017-Nov-17 13:30N 35°31' E 139°50'0 0.0
2017-Nov-17 12:59N 35°31' E 139°50'0 0.0
2017-Nov-17 12:30N 35°31' E 139°50'0 0.0
2017-Nov-17 11:16N 35°31' E 139°50'0 0.1
2017-Nov-17 11:00N 35°31' E 139°50'0 0.0
2017-Nov-17 10:30N 35°31' E 139°50'0 0.0
2017-Nov-17 10:00N 35°31' E 139°50'0 0.0
2017-Nov-17 09:30N 35°31' E 139°50'0 0.0
2017-Nov-17 09:00N 35°31' E 139°50'0 0.0
2017-Nov-17 08:30N 35°31' E 139°50'0 0.1
2017-Nov-17 07:59N 35°31' E 139°50'9 1.0
2017-Nov-16 22:54N 35°32' E 140°01'6 0.2
2017-Nov-15 11:35N 35°35' E 139°55'0 0.1
2017-Nov-15 11:30N 35°35' E 139°55'0 0.0
2017-Nov-15 06:35N 35°35' E 139°55'0 0.6
2017-Nov-15 06:24N 35°35' E 139°55'410.9
2017-Nov-15 06:00N 35°31' E 139°53'612.1
2017-Nov-15 05:29N 35°26' E 139°48'611.9
2017-Nov-15 05:00N 35°21' E 139°45'611.1
2017-Nov-15 04:30N 35°16' E 139°47'611.6
2017-Nov-15 04:00N 35°10' E 139°46'611.6
2017-Nov-15 03:30N 35°05' E 139°43'612.0
2017-Nov-15 03:00N 35°01' E 139°37'  
Track history (hours):
 
Tides and Currents Weather Stations Pressure Air Temp Water Temp Dewpoint Dewpoint Depression Visibility Wind Speed Wind Dir Waves Ship Positions

Eihoumaru No.65

Last reported at 2017-Nov-24 08:32 UTC. Time now 2017-Nov-24 09:25 UTC.
Position N 34°37' E 134°57'.

Length 62 m; draft 3.4 m.

Type: Tanker. MMSI: 431003364.

Date/timePositionNaut miles runAvg speedWind from/ knotsBaromVisibWave heightAir tempDewpointWater temp
2017-Nov-24 08:32N 34°37' E 134°57'210.0
2017-Nov-24 08:18N 34°37' E 134°59'3 8.8
2017-Nov-24 08:00N 34°37' E 135°02'5 9.9
2017-Nov-24 07:30N 34°36' E 135°08'611.5
2017-Nov-24 07:00N 34°38' E 135°15'4 8.6
2017-Nov-24 06:30N 34°42' E 135°16'0 0.1
2017-Nov-24 06:00N 34°42' E 135°16'0 0.0
2017-Nov-24 05:30N 34°42' E 135°16'0 0.0
2017-Nov-24 05:00N 34°42' E 135°16'0 0.0
2017-Nov-24 04:30N 34°42' E 135°16'0 0.3
2017-Nov-24 04:00N 34°42' E 135°16'3 6.3
2017-Nov-24 03:30N 34°39' E 135°16'1 2.3
2017-Nov-24 03:00N 34°38' E 135°18'2 4.0
2017-Nov-24 02:30N 34°39' E 135°20'4 7.2
2017-Nov-24 02:00N 34°40' E 135°24'1 2.2
2017-Nov-24 01:30N 34°40' E 135°25'0 0.0
2017-Nov-24 01:00N 34°40' E 135°25'0 0.0
2017-Nov-24 00:30N 34°40' E 135°25'0 0.0
2017-Nov-24 00:00N 34°40' E 135°25'0 0.0
2017-Nov-23 23:30N 34°40' E 135°25'3 5.6
2017-Nov-23 23:00N 34°38' E 135°22'1 2.0
2017-Nov-23 22:30N 34°39' E 135°22'0 0.0
2017-Nov-23 22:00N 34°39' E 135°22'0 0.0
2017-Nov-23 21:30N 34°39' E 135°22'0 0.0
2017-Nov-23 21:00N 34°39' E 135°22'0 0.0
2017-Nov-23 20:30N 34°39' E 135°22'0 0.0
2017-Nov-23 20:00N 34°39' E 135°22'0 0.0
2017-Nov-23 19:30N 34°39' E 135°22'0 0.9
2017-Nov-23 18:59N 34°39' E 135°22'612.3
2017-Nov-23 18:30N 34°35' E 135°16'611.6
2017-Nov-23 17:58N 34°30' E 135°12'1311.5
2017-Nov-23 16:50N 34°20' E 135°02'510.8
2017-Nov-23 16:22N 34°15' E 134°59'411.7
2017-Nov-23 15:59N 34°11' E 135°00'611.9
2017-Nov-23 15:30N 34°05' E 135°01'  
2017-Nov-19 07:42N 34°48' E 139°07'210.4
2017-Nov-19 07:30N 34°49' E 139°09'2610.5
2017-Nov-19 05:03N 35°04' E 139°34'112.3
2017-Nov-19 05:00N 35°04' E 139°35'611.6
2017-Nov-19 04:30N 35°07' E 139°41'611.8
2017-Nov-19 03:59N 35°12' E 139°46'511.2
2017-Nov-19 03:30N 35°17' E 139°45'510.2
2017-Nov-19 03:00N 35°21' E 139°41'0 0.2
2017-Nov-19 02:30N 35°21' E 139°41'0 0.1
2017-Nov-19 02:00N 35°21' E 139°41'0 0.0
2017-Nov-19 01:30N 35°21' E 139°41'0 0.0
2017-Nov-19 01:00N 35°21' E 139°41'0 0.0
2017-Nov-19 00:30N 35°21' E 139°41'0 0.0
2017-Nov-19 00:01N 35°21' E 139°41'0 0.1
2017-Nov-18 23:30N 35°21' E 139°41'0 0.0
2017-Nov-18 23:00N 35°21' E 139°41'0 0.1
2017-Nov-18 22:30N 35°21' E 139°41'0 0.1
2017-Nov-18 22:00N 35°21' E 139°41'0 0.0
2017-Nov-18 21:29N 35°21' E 139°41'0 0.0
2017-Nov-18 21:00N 35°21' E 139°41'0 0.0
2017-Nov-18 20:30N 35°21' E 139°41'0 0.0
2017-Nov-18 20:00N 35°21' E 139°41'0 0.0
2017-Nov-18 19:30N 35°21' E 139°41'0 0.0
2017-Nov-18 19:00N 35°21' E 139°41'0 0.0
2017-Nov-18 18:31N 35°21' E 139°41'0 0.0
2017-Nov-18 17:59N 35°21' E 139°41'0 0.0
2017-Nov-18 17:30N 35°21' E 139°41'0 0.0
2017-Nov-18 17:00N 35°21' E 139°41'0 0.0
2017-Nov-18 16:30N 35°21' E 139°41'0 0.0
2017-Nov-18 16:01N 35°21' E 139°41'0 0.0
2017-Nov-18 15:30N 35°21' E 139°41'0 0.0
2017-Nov-18 15:00N 35°21' E 139°41'0 0.0
2017-Nov-18 14:30N 35°21' E 139°41'0 0.0
2017-Nov-18 14:00N 35°21' E 139°41'0 0.0
2017-Nov-18 13:30N 35°21' E 139°41'0 0.0
2017-Nov-18 13:00N 35°21' E 139°41'0 0.0
2017-Nov-18 12:30N 35°21' E 139°41'0 0.0
2017-Nov-18 12:00N 35°21' E 139°41'0 0.0
2017-Nov-18 11:30N 35°21' E 139°41'0 0.0
2017-Nov-18 11:00N 35°21' E 139°41'0 0.0
2017-Nov-18 10:30N 35°21' E 139°41'0 0.0
2017-Nov-18 10:00N 35°21' E 139°41'0 0.0
2017-Nov-18 09:30N 35°21' E 139°41'0 0.0
2017-Nov-18 09:00N 35°21' E 139°41'0 0.1
2017-Nov-18 08:30N 35°21' E 139°41'0 0.1
2017-Nov-18 08:00N 35°21' E 139°41'0 0.1
2017-Nov-18 07:30N 35°21' E 139°41'0 0.0
2017-Nov-18 07:00N 35°21' E 139°41'0 0.0
2017-Nov-18 06:30N 35°21' E 139°41'0 0.0
2017-Nov-18 06:00N 35°21' E 139°41'0 0.1
2017-Nov-18 05:30N 35°21' E 139°41'0 0.1
2017-Nov-18 05:00N 35°21' E 139°41'0 0.0
2017-Nov-18 04:30N 35°21' E 139°41'0 0.2
2017-Nov-18 04:00N 35°21' E 139°41'4 8.8
2017-Nov-18 03:30N 35°25' E 139°44'510.8
2017-Nov-18 03:00N 35°29' E 139°48'3 0.6
2017-Nov-17 22:39N 35°31' E 139°46'0 0.0
2017-Nov-17 22:26N 35°31' E 139°46'0 0.0
2017-Nov-17 21:56N 35°31' E 139°46'2 5.4
2017-Nov-17 21:30N 35°30' E 139°48'2 3.5
2017-Nov-17 21:00N 35°31' E 139°50'0 0.0
2017-Nov-17 20:30N 35°31' E 139°50'0 0.0
2017-Nov-17 20:00N 35°31' E 139°50'0 0.1
2017-Nov-17 19:30N 35°31' E 139°50'0 0.0
2017-Nov-17 16:08N 35°31' E 139°50'0 0.0
2017-Nov-17 14:38N 35°31' E 139°50'0 0.0
2017-Nov-17 14:30N 35°31' E 139°50'0 0.0
2017-Nov-17 13:54N 35°31' E 139°50'0 0.0
2017-Nov-17 13:30N 35°31' E 139°50'0 0.0
2017-Nov-17 12:59N 35°31' E 139°50'0 0.0
2017-Nov-17 12:30N 35°31' E 139°50'0 0.0
2017-Nov-17 11:16N 35°31' E 139°50'0 0.1
2017-Nov-17 11:00N 35°31' E 139°50'0 0.0
2017-Nov-17 10:30N 35°31' E 139°50'0 0.0
2017-Nov-17 10:00N 35°31' E 139°50'0 0.0
2017-Nov-17 09:30N 35°31' E 139°50'0 0.0
2017-Nov-17 09:00N 35°31' E 139°50'0 0.0
2017-Nov-17 08:30N 35°31' E 139°50'0 0.1
2017-Nov-17 07:59N 35°31' E 139°50'9 1.0
2017-Nov-16 22:54N 35°32' E 140°01'6 0.2
2017-Nov-15 11:35N 35°35' E 139°55'0 0.1
2017-Nov-15 11:30N 35°35' E 139°55'0 0.0
2017-Nov-15 06:35N 35°35' E 139°55'0 0.6
2017-Nov-15 06:24N 35°35' E 139°55'410.9
2017-Nov-15 06:00N 35°31' E 139°53'612.1
2017-Nov-15 05:29N 35°26' E 139°48'611.9
2017-Nov-15 05:00N 35°21' E 139°45'611.1
2017-Nov-15 04:30N 35°16' E 139°47'611.6
2017-Nov-15 04:00N 35°10' E 139°46'611.6
2017-Nov-15 03:30N 35°05' E 139°43'612.0
2017-Nov-15 03:00N 35°01' E 139°37'  

Dump ship's entire track history